Time;durP1;ratioP1;P1;durP2;ratioP2;P2;SDS_P1;SDS_P2;PMS_P1;PMS_P2;Temp;Humidity;BMP_temperature;BMP_pressure;BME280_temperature;BME280_humidity;BME280_pressure;Samples;Min_cycle;Max_cycle;Signal;HPM_P1;HPM_P2
2022/05/24 00:00:21;;;;;;;9.18;2.75;;;;;;;23.04;51.15;99450.94;5004430;28;20413;-89
2022/05/24 00:02:47;;;;;;;9.35;2.53;;;;;;;23.00;51.98;99449.84;5019344;28;20085;-82
2022/05/24 00:05:14;;;;;;;7.32;2.35;;;;;;;22.97;52.20;99455.78;5021531;28;20091;-83
2022/05/24 00:07:41;;;;;;;12.02;2.78;;;;;;;23.02;52.13;99461.22;5020390;28;20068;-86
2022/05/24 00:10:09;;;;;;;7.53;2.42;;;;;;;23.02;52.74;99458.50;5018154;28;20030;-81
2022/05/24 00:12:35;;;;;;;6.80;2.75;;;;;;;22.91;53.47;99456.03;5021427;28;20354;-86
2022/05/24 00:15:19;;;;;;;4.95;2.38;;;;;;;22.85;54.43;99452.53;5015689;28;20042;-88
2022/05/24 00:17:59;;;;;;;6.07;2.20;;;;;;;22.73;55.90;99454.69;5021109;28;20042;-86
2022/05/24 00:20:36;;;;;;;5.93;2.60;;;;;;;22.76;56.12;99451.44;5020827;28;20468;-85
2022/05/24 00:23:05;;;;;;;9.90;3.05;;;;;;;22.69;57.12;99453.59;5020108;28;20386;-85
2022/05/24 00:25:34;;;;;;;7.30;2.30;;;;;;;22.72;57.29;99458.44;5006890;28;20049;-87
2022/05/24 00:28:00;;;;;;;7.05;2.90;;;;;;;22.74;57.32;99461.69;5023436;28;20072;-92
2022/05/24 00:30:28;;;;;;;5.18;2.67;;;;;;;22.73;57.78;99453.88;5021573;28;20038;-89
2022/05/24 00:32:56;;;;;;;6.80;2.63;;;;;;;22.71;58.42;99461.41;5022485;28;20121;-88
2022/05/24 00:35:22;;;;;;;4.82;2.33;;;;;;;22.68;58.82;99460.06;5023576;28;20038;-87
2022/05/24 00:37:48;;;;;;;9.50;2.85;;;;;;;22.76;58.94;99445.22;5002681;28;20041;-88
2022/05/24 00:40:34;;;;;;;8.13;2.70;;;;;;;22.70;58.92;99439.00;5021126;28;20042;-87
2022/05/24 00:43:08;;;;;;;5.30;2.40;;;;;;;22.72;59.40;99441.44;5022317;28;20045;-87
2022/05/24 00:45:39;;;;;;;8.60;2.70;;;;;;;22.65;59.99;99447.88;5020078;28;20052;-88
2022/05/24 00:48:18;;;;;;;10.13;3.00;;;;;;;22.56;60.04;99437.84;5018903;28;20042;-86
2022/05/24 00:50:48;;;;;;;8.30;2.70;;;;;;;22.58;60.50;99441.09;5020197;28;20030;-82
2022/05/24 00:53:13;;;;;;;12.73;2.80;;;;;;;22.65;60.34;99442.47;5020602;28;20089;-83
2022/05/24 00:55:46;;;;;;;4.95;2.70;;;;;;;22.66;60.26;99440.63;5020331;28;20120;-90
2022/05/24 00:58:19;;;;;;;11.25;2.95;;;;;;;22.69;60.50;99423.06;5022121;28;20034;-86
2022/05/24 01:00:45;;;;;;;7.95;2.75;;;;;;;22.76;60.97;99427.13;5023298;28;20034;-86
2022/05/24 01:03:12;;;;;;;7.22;2.65;;;;;;;22.87;61.07;99423.34;5019973;28;20034;-86
2022/05/24 01:05:38;;;;;;;9.40;2.78;;;;;;;22.98;61.38;99426.88;5020356;28;20133;-87
2022/05/24 01:08:04;;;;;;;6.07;2.70;;;;;;;23.00;61.20;99414.69;5003708;28;20160;-85
2022/05/24 01:10:29;;;;;;;4.30;2.63;;;;;;;22.89;61.78;99414.97;5021383;28;20037;-88
2022/05/24 01:12:58;;;;;;;3.13;2.10;;;;;;;22.94;61.69;99410.38;5021091;28;20045;-82
2022/05/24 01:15:25;;;;;;;7.80;2.90;;;;;;;22.89;62.16;99415.78;5019317;28;20037;-83
2022/05/24 01:17:53;;;;;;;6.75;2.95;;;;;;;22.77;62.94;99409.03;5016982;28;20057;-83
2022/05/24 01:20:19;;;;;;;7.78;3.10;;;;;;;22.72;63.50;99411.72;5016738;28;20044;-85
2022/05/24 01:23:32;;;;;;;5.32;2.40;;;;;;;22.55;64.51;99409.22;5016666;28;20034;-85
2022/05/24 01:26:09;;;;;;;;;;;;;;;22.39;65.42;99411.09;4956640;28;20053;-82
2022/05/24 01:28:46;;;;;;;10.13;3.00;;;;;;;22.46;65.51;99400.03;5017297;28;19917;-80
2022/05/24 01:31:12;;;;;;;8.57;2.83;;;;;;;22.42;66.02;99401.63;5016811;28;20037;-84
2022/05/24 01:36:24;;;;;;;7.38;3.30;;;;;;;22.18;67.82;99406.69;5015785;28;20408;-81
2022/05/24 01:38:58;;;;;;;6.18;2.72;;;;;;;22.21;67.49;99408.03;5017687;28;20049;-84
2022/05/24 01:41:31;;;;;;;9.68;2.45;;;;;;;22.14;68.02;99406.41;5017465;28;20041;-82
2022/05/24 01:43:58;;;;;;;7.35;3.00;;;;;;;22.17;68.35;99397.00;5015442;28;20120;-82
2022/05/24 01:46:44;;;;;;;8.52;3.10;;;;;;;22.00;69.03;99405.28;5015738;28;20117;-80
2022/05/24 01:49:14;;;;;;;6.90;3.15;;;;;;;21.94;69.39;99409.00;5018284;28;20026;-84
2022/05/24 01:51:54;;;;;;;7.07;3.30;;;;;;;21.96;69.71;99414.97;5018876;28;20065;-87
2022/05/24 01:54:21;;;;;;;11.90;3.22;;;;;;;21.99;69.87;99414.44;5019537;28;20048;-82
2022/05/24 01:57:11;;;;;;;6.35;2.67;;;;;;;22.10;68.99;99418.00;5023332;28;20080;-83
2022/05/24 01:59:39;;;;;;;8.60;3.10;;;;;;;22.24;67.67;99421.03;5023691;28;20065;-84
2022/05/24 02:02:05;;;;;;;8.48;3.38;;;;;;;22.28;67.31;99425.63;5021755;28;20045;-87
2022/05/24 02:04:32;;;;;;;7.25;2.92;;;;;;;22.26;67.99;99430.47;5020377;28;20101;-81
2022/05/24 02:07:20;;;;;;;7.78;2.88;;;;;;;22.22;68.08;99432.06;5022598;28;20412;-83
2022/05/24 02:09:48;;;;;;;7.18;2.97;;;;;;;22.22;68.38;99436.66;5016815;28;20358;-81
2022/05/24 02:12:37;;;;;;;7.28;2.67;;;;;;;22.24;67.83;99435.31;5016052;28;20042;-89
2022/05/24 02:15:06;;;;;;;12.02;2.67;;;;;;;22.22;67.98;99437.47;5015274;28;20049;-88
2022/05/24 02:17:42;;;;;;;11.23;3.28;;;;;;;22.31;67.38;99441.28;5014472;28;20491;-84
2022/05/24 02:20:11;;;;;;;7.07;2.88;;;;;;;22.32;67.57;99434.81;5014903;28;20030;-80
2022/05/24 02:22:38;;;;;;;13.63;2.50;;;;;;;22.41;67.00;99435.91;5015161;28;20022;-87
2022/05/24 02:25:22;;;;;;;8.20;2.97;;;;;;;22.48;66.65;99433.78;4997805;28;20444;-86
2022/05/24 02:27:48;;;;;;;11.65;3.15;;;;;;;22.37;67.26;99439.44;5015880;28;20037;-85
2022/05/24 02:30:18;;;;;;;6.80;3.00;;;;;;;22.17;68.35;99436.66;5014954;28;20145;-85
2022/05/24 02:32:43;;;;;;;8.52;3.30;;;;;;;21.92;69.58;99432.75;5014371;28;20056;-87
2022/05/24 02:35:10;;;;;;;8.68;2.85;;;;;;;21.78;70.30;99430.75;5014146;28;20129;-87
2022/05/24 02:37:35;;;;;;;14.30;3.25;;;;;;;21.66;70.92;99428.25;5014329;28;20030;-87
2022/05/24 02:42:46;;;;;;;7.05;3.03;;;;;;;21.22;73.43;99425.00;5017128;28;20037;-83
2022/05/24 02:45:11;;;;;;;10.88;3.60;;;;;;;21.24;73.82;99432.84;5016034;28;20110;-90
2022/05/24 02:47:37;;;;;;;9.73;3.10;;;;;;;21.16;74.23;99427.91;5015999;28;20135;-87
2022/05/24 02:50:03;;;;;;;9.48;3.30;;;;;;;21.10;74.81;99419.78;5014956;28;20026;-89
2022/05/24 02:52:30;;;;;;;9.23;2.80;;;;;;;21.01;75.62;99415.91;4999573;28;20034;-85
2022/05/24 02:54:57;;;;;;;9.32;3.17;;;;;;;20.98;75.82;99432.56;5004371;28;20084;-86
2022/05/24 02:57:24;;;;;;;6.47;3.28;;;;;;;20.75;76.80;99426.72;4999593;28;20034;-83
2022/05/24 02:59:49;;;;;;;7.50;3.40;;;;;;;20.90;75.88;99427.66;5016374;28;20492;-90
2022/05/24 03:02:15;;;;;;;9.73;3.28;;;;;;;20.73;77.24;99423.44;5016244;28;20095;-88
2022/05/24 03:04:41;;;;;;;5.97;2.80;;;;;;;20.59;78.51;99434.63;5015776;28;20562;-83
2022/05/24 03:09:50;;;;;;;6.72;3.33;;;;;;;20.53;79.08;99429.44;5014293;28;20053;-90
2022/05/24 03:15:00;;;;;;;8.35;3.70;;;;;;;20.32;80.46;99432.97;5017311;28;20030;-83
2022/05/24 03:17:31;;;;;;;9.60;3.45;;;;;;;20.39;81.05;99433.59;5014639;28;20065;-89
2022/05/24 03:19:59;;;;;;;6.97;3.28;;;;;;;20.52;79.09;99425.13;5016991;28;20034;-81
2022/05/24 03:22:25;;;;;;;9.70;3.28;;;;;;;20.61;76.82;99421.72;5016098;28;20088;-89
2022/05/24 03:24:50;;;;;;;11.13;3.72;;;;;;;20.57;76.54;99427.88;5017034;28;20565;-88
2022/05/24 03:27:17;;;;;;;11.85;4.10;;;;;;;20.63;75.18;99430.38;5019985;28;20061;-84
2022/05/24 03:29:45;;;;;;;11.23;3.92;;;;;;;20.71;74.76;99430.97;5003691;28;20065;-93
2022/05/24 03:32:13;;;;;;;16.25;3.47;;;;;;;20.81;74.29;99445.38;5020518;28;20029;-87
2022/05/24 03:34:39;;;;;;;14.27;3.78;;;;;;;20.89;73.65;99442.19;4998021;28;20472;-81
2022/05/24 03:37:08;;;;;;;12.10;3.80;;;;;;;20.88;73.95;99448.66;5017139;28;20120;-86
2022/05/24 03:39:36;;;;;;;12.95;3.70;;;;;;;20.98;73.73;99443.34;5015755;28;20138;-82
2022/05/24 03:42:02;;;;;;;9.02;3.65;;;;;;;21.04;74.57;99457.69;5014458;28;20069;-90
2022/05/24 03:44:28;;;;;;;9.48;3.80;;;;;;;20.95;74.47;99460.03;5017456;28;20123;-88
2022/05/24 03:47:04;;;;;;;13.57;3.38;;;;;;;20.89;74.21;99461.06;5019104;28;20409;-90
2022/05/24 03:49:30;;;;;;;9.75;3.55;;;;;;;20.94;73.34;99458.41;5018640;28;20238;-84
2022/05/24 03:51:55;;;;;;;10.32;3.63;;;;;;;20.71;75.19;99452.53;5016746;28;20134;-85
2022/05/24 03:54:22;;;;;;;9.73;3.15;;;;;;;20.54;76.19;99452.63;5014968;28;20518;-85
2022/05/24 03:59:32;;;;;;;7.97;3.47;;;;;;;20.54;76.70;99452.63;5018000;28;20119;-85
2022/05/24 04:01:58;;;;;;;14.27;3.83;;;;;;;20.50;77.56;99464.94;5019859;28;20034;-93
2022/05/24 04:04:23;;;;;;;13.18;3.75;;;;;;;20.59;77.33;99458.03;5018133;28;20151;-86
2022/05/24 04:06:49;;;;;;;11.10;3.90;;;;;;;20.67;77.07;99454.91;4999318;28;20396;-82
2022/05/24 04:09:14;;;;;;;12.57;3.70;;;;;;;20.67;77.27;99463.00;5001151;28;20041;-84
2022/05/24 04:11:40;;;;;;;11.93;3.55;;;;;;;20.68;77.54;99458.41;4997795;28;20046;-84
2022/05/24 04:14:05;;;;;;;6.50;3.50;;;;;;;20.70;77.40;99462.47;4980417;28;20108;-90
2022/05/24 04:16:32;;;;;;;7.55;3.00;;;;;;;20.82;77.31;99465.00;4998035;28;20476;-83
2022/05/24 04:18:58;;;;;;;9.95;3.30;;;;;;;20.89;76.86;99471.81;4999049;28;20029;-86
2022/05/24 04:21:24;;;;;;;12.63;3.15;;;;;;;21.00;76.01;99478.94;5004170;28;20098;-81
2022/05/24 04:23:49;;;;;;;10.07;3.53;;;;;;;21.17;75.06;99483.44;4991105;28;20030;-84
2022/05/24 04:26:17;;;;;;;10.52;3.63;;;;;;;21.25;74.47;99493.72;5009772;28;20030;-84
2022/05/24 04:28:42;;;;;;;8.95;3.50;;;;;;;21.22;75.08;99496.94;5012970;28;20205;-82
2022/05/24 04:31:08;;;;;;;13.77;3.50;;;;;;;21.34;75.14;99503.00;5007091;28;20042;-83
2022/05/24 04:33:34;;;;;;;6.55;2.45;;;;;;;21.32;73.37;99499.72;5005725;28;20138;-84
2022/05/24 04:36:00;;;;;;;11.02;2.88;;;;;;;21.42;72.04;99502.50;5003951;28;20049;-84
2022/05/24 04:38:26;;;;;;;10.52;3.13;;;;;;;21.51;72.25;99506.38;5009402;28;20117;-87
2022/05/24 04:43:36;;;;;;;12.43;2.60;;;;;;;21.72;69.57;99510.81;5003769;28;20042;-92
2022/05/24 04:46:14;;;;;;;8.45;2.90;;;;;;;21.86;68.88;99513.91;5004703;28;20083;-90
2022/05/24 04:48:40;;;;;;;10.18;2.83;;;;;;;21.95;67.12;99505.06;4990605;28;20038;-95
2022/05/24 04:51:07;;;;;;;9.23;2.80;;;;;;;22.11;65.33;99520.28;5006666;28;20481;-92
2022/05/24 04:53:32;;;;;;;12.07;2.75;;;;;;;22.12;66.64;99516.50;4983633;28;20056;-92
2022/05/24 04:56:03;;;;;;;9.80;2.85;;;;;;;22.08;68.07;99518.09;4965758;28;20050;-89
2022/05/24 04:58:29;;;;;;;15.23;2.60;;;;;;;22.07;68.13;99527.25;4999437;28;20113;-89
2022/05/24 05:00:55;;;;;;;11.90;2.42;;;;;;;22.03;69.53;99523.50;4965146;28;20037;-88
2022/05/24 05:03:22;;;;;;;12.13;3.00;;;;;;;22.10;68.55;99532.16;4980449;28;20040;-88
2022/05/24 05:05:51;;;;;;;9.57;2.78;;;;;;;22.05;68.01;99529.41;4997946;28;20038;-88
2022/05/24 05:08:18;;;;;;;13.77;3.17;;;;;;;22.07;66.64;99529.97;4965720;28;20464;-89
2022/05/24 05:10:43;;;;;;;12.93;3.03;;;;;;;22.13;68.01;99526.25;4997736;28;20038;-91
2022/05/24 05:13:15;;;;;;;8.15;3.45;;;;;;;22.19;66.76;99521.69;4990892;28;20124;-90
2022/05/24 05:15:41;;;;;;;8.50;2.85;;;;;;;22.18;66.45;99520.03;4977611;28;20037;-89
2022/05/24 05:18:10;;;;;;;8.25;3.10;;;;;;;22.00;68.69;99529.41;4979304;28;20038;-87
2022/05/24 05:20:39;;;;;;;17.17;3.20;;;;;;;22.06;68.96;99533.75;4996164;28;20137;-88
2022/05/24 05:23:09;;;;;;;11.68;3.63;;;;;;;21.97;70.86;99527.22;5011685;28;20114;-89
2022/05/24 05:25:37;;;;;;;16.27;3.80;;;;;;;22.14;71.11;99525.16;4980145;28;20049;-87
2022/05/24 05:28:06;;;;;;;12.35;3.72;;;;;;;22.00;73.04;99532.09;4984879;28;20033;-86
2022/05/24 05:33:16;;;;;;;13.20;3.97;;;;;;;21.95;74.26;99528.53;4990771;28;20026;-88
2022/05/24 05:35:46;;;;;;;11.73;3.72;;;;;;;21.74;76.33;99530.28;4978777;28;20102;-90
2022/05/24 05:38:12;;;;;;;23.17;4.75;;;;;;;21.54;77.77;99522.03;4978091;28;20062;-89
2022/05/24 05:40:38;;;;;;;19.50;4.50;;;;;;;21.48;78.08;99523.03;4959603;28;20073;-92
2022/05/24 05:43:05;;;;;;;16.13;4.13;;;;;;;21.49;78.03;99519.28;4959897;28;20053;-88
2022/05/24 05:45:32;;;;;;;13.40;3.80;;;;;;;21.64;76.39;99527.50;4976363;28;20069;-87
2022/05/24 05:47:58;;;;;;;10.65;3.97;;;;;;;21.80;76.07;99537.34;4976613;28;20035;-89
2022/05/24 05:50:24;;;;;;;18.95;4.07;;;;;;;21.87;76.10;99537.94;4980955;28;20168;-88
2022/05/24 05:52:52;;;;;;;23.20;4.22;;;;;;;22.02;75.57;99540.75;4994112;28;20046;-84
2022/05/24 05:55:21;;;;;;;11.73;3.65;;;;;;;22.21;75.25;99543.81;4993025;28;20027;-84
2022/05/24 05:57:47;;;;;;;14.80;3.50;;;;;;;22.44;75.01;99559.59;4999489;28;20042;-88
2022/05/24 06:00:13;;;;;;;14.32;3.80;;;;;;;22.58;74.17;99555.34;4998617;28;20080;-86
2022/05/24 06:02:46;;;;;;;16.50;3.00;;;;;;;22.64;65.45;99564.28;4987660;28;20042;-85
2022/05/24 06:05:13;;;;;;;17.33;3.33;;;;;;;22.64;60.39;99565.09;4993587;28;20034;-85
2022/05/24 06:07:39;;;;;;;15.68;3.83;;;;;;;22.87;59.06;99566.56;4994389;28;20595;-84
2022/05/24 06:10:08;;;;;;;19.33;3.40;;;;;;;23.09;58.71;99560.94;4994824;28;20034;-88
2022/05/24 06:12:34;;;;;;;12.50;2.80;;;;;;;23.27;57.37;99568.53;4977861;28;20038;-88
2022/05/24 06:14:59;;;;;;;13.68;3.03;;;;;;;23.54;57.41;99562.91;5003839;28;20596;-87
2022/05/24 06:17:25;;;;;;;9.68;3.03;;;;;;;23.50;61.78;99561.81;5002987;28;20389;-83
2022/05/24 06:19:54;;;;;;;10.48;3.17;;;;;;;23.66;60.71;99563.50;5008771;28;20084;-85
2022/05/24 06:22:19;;;;;;;21.90;3.33;;;;;;;23.78;60.52;99565.91;5008578;28;20026;-84
2022/05/24 06:24:46;;;;;;;12.40;3.05;;;;;;;23.96;60.41;99566.16;5007668;28;20039;-84
2022/05/24 06:27:20;;;;;;;13.75;3.00;;;;;;;23.84;56.36;99562.91;5004355;28;20038;-88
2022/05/24 06:29:46;;;;;;;12.75;3.70;;;;;;;23.37;50.75;99578.56;4985660;28;20085;-90
2022/05/24 06:32:12;;;;;;;9.48;3.70;;;;;;;23.18;51.07;99573.69;4962133;28;20042;-84
2022/05/24 06:34:40;;;;;;;17.30;3.30;;;;;;;23.09;51.78;99571.75;4995792;28;20034;-85
2022/05/24 06:37:07;;;;;;;10.70;3.42;;;;;;;23.43;50.30;99577.53;4995820;28;20046;-84
2022/05/24 06:39:32;;;;;;;12.82;3.28;;;;;;;23.92;48.17;99575.91;4992627;28;20398;-88
2022/05/24 06:41:58;;;;;;;8.65;3.17;;;;;;;24.26;47.86;99581.56;4994743;28;20486;-90
2022/05/24 06:44:27;;;;;;;11.85;3.17;;;;;;;24.40;47.81;99582.63;4977610;28;20073;-87
2022/05/24 06:46:52;;;;;;;10.90;3.40;;;;;;;24.46;48.37;99581.50;4996945;28;20046;-90
2022/05/24 06:49:18;;;;;;;13.38;2.95;;;;;;;24.52;47.67;99585.03;4986186;28;20065;-85
2022/05/24 06:51:44;;;;;;;15.00;3.50;;;;;;;24.66;47.49;99586.03;5006072;28;20034;-87
2022/05/24 06:54:09;;;;;;;13.07;3.30;;;;;;;25.23;46.64;99584.72;4982308;28;20097;-90
2022/05/24 06:56:35;;;;;;;11.68;3.28;;;;;;;25.46;46.11;99584.81;5005226;28;20057;-87
2022/05/24 07:04:28;;;;;;;17.83;4.18;;;;;;;26.99;46.85;99585.00;4996566;28;20033;-87
2022/05/24 07:06:54;;;;;;;12.43;3.85;;;;;;;27.22;47.28;99590.38;5002127;28;20034;-90
2022/05/24 07:09:29;;;;;;;14.57;4.57;;;;;;;27.54;47.71;99586.13;5004207;28;20031;-87
2022/05/24 07:12:39;;;;;;;13.00;5.45;;;;;;;27.58;48.12;99581.69;5005653;28;20529;-90
2022/05/24 07:15:08;;;;;;;19.27;4.43;;;;;;;27.72;49.04;99593.44;4989001;28;20037;-88
2022/05/24 07:17:34;;;;;;;16.63;4.97;;;;;;;28.32;47.16;99585.34;5010739;28;20098;-85
2022/05/24 07:20:00;;;;;;;18.20;4.70;;;;;;;28.20;48.27;99583.94;4996222;28;20041;-90
2022/05/24 07:22:26;;;;;;;15.25;4.43;;;;;;;28.17;47.90;99579.06;4988574;28;20050;-90
2022/05/24 07:24:52;;;;;;;10.85;3.33;;;;;;;29.16;44.80;99586.66;4990982;28;20069;-89
2022/05/24 07:27:28;;;;;;;12.68;3.83;;;;;;;28.81;45.46;99582.75;5006067;28;20033;-88
2022/05/24 07:29:56;;;;;;;12.65;3.83;;;;;;;28.05;49.01;99580.63;4982849;28;20048;-88
2022/05/24 07:32:23;;;;;;;11.38;3.08;;;;;;;29.61;45.81;99582.06;4985554;28;20069;-87
2022/05/24 07:35:01;;;;;;;13.02;3.63;;;;;;;29.43;46.43;99586.56;5004540;28;20035;-88
2022/05/24 07:37:50;;;;;;;12.90;4.10;;;;;;;28.52;48.38;99583.03;5008902;28;20042;-85
2022/05/24 07:46:04;;;;;;;11.27;2.85;;;;;;;27.37;51.83;99574.94;5013636;28;20070;-86
2022/05/24 07:48:30;;;;;;;12.38;4.18;;;;;;;28.19;52.00;99576.06;4991858;28;20038;-91
2022/05/24 07:50:55;;;;;;;15.85;5.10;;;;;;;28.11;53.52;99579.47;5001916;28;20442;-85
2022/05/24 07:53:21;;;;;;;16.92;4.35;;;;;;;27.85;53.87;99573.63;4979024;28;20050;-85
2022/05/24 07:55:46;;;;;;;12.45;4.78;;;;;;;27.00;57.39;99582.00;4995407;28;20136;-87
2022/05/24 07:58:13;;;;;;;19.05;4.80;;;;;;;27.10;56.52;99573.69;5016404;28;20489;-86
2022/05/24 08:00:40;;;;;;;15.80;4.13;;;;;;;27.51;55.39;99576.63;4996841;28;20034;-90
2022/05/24 08:03:07;;;;;;;11.05;5.18;;;;;;;27.73;56.02;99567.84;5000349;28;20494;-89
2022/05/24 08:05:35;;;;;;;15.93;5.43;;;;;;;27.89;55.50;99566.47;5013143;28;20031;-90
2022/05/24 08:08:01;;;;;;;18.00;4.78;;;;;;;28.79;52.19;99557.72;5015012;28;20014;-89
2022/05/24 08:10:38;;;;;;;11.15;3.47;;;;;;;28.65;49.20;99556.88;5014628;28;20030;-89
2022/05/24 08:13:08;;;;;;;15.02;3.60;;;;;;;28.57;48.19;99555.66;5017500;28;20022;-88
2022/05/24 08:15:33;;;;;;;11.98;2.95;;;;;;;27.89;50.09;99550.13;5005116;28;20037;-89
2022/05/24 08:17:59;;;;;;;10.50;3.20;;;;;;;27.25;50.53;99561.75;5001443;28;20039;-90
2022/05/24 08:20:32;;;;;;;17.25;3.72;;;;;;;27.91;48.44;99563.44;4981854;28;20030;-88
2022/05/24 08:22:59;;;;;;;12.93;3.00;;;;;;;27.90;48.77;99553.66;5000376;28;20045;-91
2022/05/24 08:25:27;;;;;;;10.00;2.75;;;;;;;28.67;47.37;99550.03;4984187;28;20046;-91
2022/05/24 08:27:53;;;;;;;10.35;2.92;;;;;;;28.86;46.57;99555.38;5002127;28;20393;-87
2022/05/24 08:30:19;;;;;;;13.02;3.00;;;;;;;28.44;47.56;99555.69;5004843;28;20030;-87
2022/05/24 08:32:51;;;;;;;13.10;3.30;;;;;;;29.19;45.48;99551.34;5007249;28;20018;-88
2022/05/24 08:35:19;;;;;;;11.48;3.20;;;;;;;29.39;45.74;99557.47;5007698;28;20022;-89
2022/05/24 08:37:46;;;;;;;14.40;3.17;;;;;;;28.80;45.17;99547.63;4996127;28;20040;-87
2022/05/24 08:40:14;;;;;;;10.95;3.53;;;;;;;28.22;46.88;99542.75;5009311;28;20120;-90
2022/05/24 08:43:30;;;;;;;10.70;3.35;;;;;;;28.40;46.53;99538.31;5017868;28;20050;-90
2022/05/24 08:48:59;;;;;;;17.63;3.22;;;;;;;28.09;47.53;99538.91;4942138;29;20076;-90
2022/05/24 08:51:28;;;;;;;11.68;3.05;;;;;;;28.25;48.04;99542.16;4938062;29;20055;-88
2022/05/24 08:53:58;;;;;;;20.50;3.35;;;;;;;29.03;46.55;99547.38;4936147;29;20519;-90
2022/05/24 08:56:28;;;;;;;17.63;3.58;;;;;;;29.31;45.59;99541.84;4938578;29;20569;-88
2022/05/24 08:59:00;;;;;;;14.95;3.90;;;;;;;29.18;46.64;99544.28;4945985;28;20048;-88
2022/05/24 09:01:35;;;;;;;19.63;3.92;;;;;;;29.14;47.43;99546.00;4939352;29;20036;-87
2022/05/24 09:04:28;;;;;;;12.48;3.85;;;;;;;28.79;47.24;99546.00;4940642;29;20140;-90
2022/05/24 09:07:01;;;;;;;22.60;4.20;;;;;;;28.84;45.82;99543.94;4941983;29;20036;-87
2022/05/24 09:09:30;;;;;;;11.35;3.38;;;;;;;28.61;49.17;99545.78;4939154;29;20534;-87
2022/05/24 09:12:17;;;;;;;16.10;3.42;;;;;;;28.09;49.29;99538.91;4940201;29;20115;-89
2022/05/24 09:15:36;;;;;;;13.75;2.95;;;;;;;28.21;47.01;99541.94;4939266;29;20035;-89
2022/05/24 09:18:20;;;;;;;11.55;3.45;;;;;;;29.01;45.43;99537.84;4899315;29;20044;-89
2022/05/24 09:20:47;;;;;;;13.52;3.35;;;;;;;29.50;43.50;99528.84;4883174;29;20511;-86
2022/05/24 09:23:31;;;;;;;15.63;4.00;;;;;;;29.65;43.39;99537.44;4883263;29;20061;-87
2022/05/24 09:26:04;;;;;;;18.05;4.22;;;;;;;29.54;43.34;99529.78;4896335;29;20045;-86
2022/05/24 09:28:49;;;;;;;14.85;3.30;;;;;;;29.93;43.08;99540.84;4886854;28;20086;-90
2022/05/24 09:32:03;;;;;;;18.98;3.70;;;;;;;29.70;42.98;99533.75;4967580;28;20417;-91
2022/05/24 09:34:31;;;;;;;15.00;4.22;;;;;;;29.09;43.29;99535.22;4995895;28;20111;-90
2022/05/24 09:37:01;;;;;;;12.88;3.25;;;;;;;28.62;45.29;99533.75;4982236;28;20053;-92
2022/05/24 09:39:33;;;;;;;19.40;4.07;;;;;;;28.16;46.19;99536.59;5011520;28;20030;-89
2022/05/24 09:42:07;;;;;;;12.35;3.38;;;;;;;28.37;46.14;99526.09;5011166;28;20038;-90
2022/05/24 09:44:50;;;;;;;18.42;4.10;;;;;;;28.04;47.30;99530.00;5012360;28;20026;-91
2022/05/24 09:47:43;;;;;;;13.57;3.50;;;;;;;27.83;47.64;99540.44;4990949;28;20042;-89
2022/05/24 09:50:38;;;;;;;13.55;3.92;;;;;;;27.47;48.40;99526.63;5003667;28;20098;-90
2022/05/24 09:53:20;;;;;;;20.00;4.05;;;;;;;27.63;48.08;99529.91;4986211;28;20045;-87
2022/05/24 09:56:14;;;;;;;14.32;3.58;;;;;;;27.63;47.90;99513.56;4999612;28;20034;-91
2022/05/24 09:59:00;;;;;;;14.48;4.13;;;;;;;27.59;46.85;99524.25;5005041;28;20100;-90
2022/05/24 10:02:07;;;;;;;20.67;4.15;;;;;;;27.50;47.28;99531.47;4987588;28;20084;-91
2022/05/24 10:04:39;;;;;;;21.98;3.70;;;;;;;27.49;46.75;99529.03;5002184;28;20045;-89
2022/05/24 10:07:28;;;;;;;15.23;3.22;;;;;;;27.55;46.62;99523.22;5007552;28;20094;-90
2022/05/24 10:10:12;;;;;;;17.55;3.63;;;;;;;27.27;47.59;99526.09;4987501;28;20039;-89
2022/05/24 10:12:52;;;;;;;11.25;3.90;;;;;;;27.37;47.10;99528.66;5003754;28;20049;-91
2022/05/24 10:15:33;;;;;;;24.27;3.92;;;;;;;27.38;47.29;99527.53;5005660;28;20064;-90
2022/05/24 10:18:36;;;;;;;12.45;3.58;;;;;;;27.39;47.44;99521.81;4973230;28;20073;-88
2022/05/24 10:21:21;;;;;;;19.67;3.72;;;;;;;27.48;48.08;99528.22;4991717;28;20567;-89
2022/05/24 10:24:38;;;;;;;16.27;4.22;;;;;;;27.76;48.32;99540.03;5009041;28;20026;-89
2022/05/24 10:27:36;;;;;;;18.50;4.22;;;;;;;27.91;47.21;99536.19;4938924;28;20061;-91
2022/05/24 10:30:20;;;;;;;18.23;4.00;;;;;;;28.14;47.90;99541.53;4997778;28;20050;-88
2022/05/24 10:40:05;;;;;;;20.05;3.65;;;;;;;28.06;48.17;99538.69;4934070;29;20051;-93
2022/05/24 10:43:03;;;;;;;14.95;3.75;;;;;;;27.73;48.70;99532.44;4901132;29;20025;-91
2022/05/24 10:45:51;;;;;;;12.02;3.67;;;;;;;27.69;49.83;99524.06;4915400;29;20094;-93
2022/05/24 10:48:29;;;;;;;;;;;;;;;27.79;49.96;99531.25;4916562;29;20442;-88
2022/05/24 10:51:09;;;;;;;12.77;3.50;;;;;;;27.96;48.76;99526.03;4913853;29;19925;-89
2022/05/24 10:53:52;;;;;;;;;;;;;;;27.88;48.96;99529.44;4918901;29;20060;-86
2022/05/24 10:59:10;;;;;;;13.18;3.25;;;;;;;27.86;49.23;99528.94;4713496;26;20046;-90
2022/05/24 11:01:50;;;;;;;19.98;4.10;;;;;;;27.81;49.38;99526.31;4987455;28;20042;-87
2022/05/24 11:04:41;;;;;;;11.63;3.38;;;;;;;27.99;49.25;99528.16;4995509;28;20046;-90
2022/05/24 11:07:14;;;;;;;12.18;3.00;;;;;;;28.15;47.98;99532.25;4988195;28;20038;-89
2022/05/24 11:10:09;;;;;;;13.52;3.20;;;;;;;28.30;48.17;99522.97;5003656;28;20038;-88
2022/05/24 11:12:48;;;;;;;16.77;3.63;;;;;;;28.47;47.60;99527.81;5005602;28;20038;-89
2022/05/24 11:15:14;;;;;;;14.07;3.55;;;;;;;28.83;47.58;99526.00;4986154;28;20046;-87
2022/05/24 11:17:41;;;;;;;16.88;4.13;;;;;;;28.91;46.58;99527.97;5009853;28;20061;-92
2022/05/24 11:20:16;;;;;;;17.08;3.30;;;;;;;29.10;45.60;99527.84;4974848;28;20057;-90
2022/05/24 11:23:10;;;;;;;15.10;3.65;;;;;;;29.22;46.44;99528.09;4975491;28;20038;-89
2022/05/24 11:26:11;;;;;;;12.68;3.35;;;;;;;29.03;45.60;99517.34;5002618;28;20175;-89
2022/05/24 11:28:47;;;;;;;16.48;3.60;;;;;;;29.20;45.39;99520.19;4991053;28;20141;-87
2022/05/24 11:31:40;;;;;;;12.70;3.60;;;;;;;28.86;44.54;99522.66;5013371;28;20386;-89
2022/05/24 11:34:25;;;;;;;11.13;3.53;;;;;;;29.21;44.82;99527.28;5005321;28;20045;-87
2022/05/24 11:37:31;;;;;;;21.70;4.32;;;;;;;29.38;44.07;99525.84;5004824;28;20069;-88
2022/05/24 11:40:25;;;;;;;11.05;3.63;;;;;;;29.26;43.02;99520.94;5005109;28;20092;-88
2022/05/24 11:43:31;;;;;;;13.48;3.60;;;;;;;29.43;43.23;99514.81;4998677;28;20044;-88
2022/05/24 11:46:06;;;;;;;13.00;3.72;;;;;;;29.39;43.59;99517.34;4990534;28;20074;-91
2022/05/24 11:48:44;;;;;;;15.57;3.58;;;;;;;28.99;44.54;99519.06;5014265;28;20043;-88
2022/05/24 11:51:31;;;;;;;15.48;3.40;;;;;;;28.97;45.19;99510.38;5018869;28;20042;-88
2022/05/24 11:53:58;;;;;;;14.70;3.67;;;;;;;28.54;46.29;99517.28;5008483;28;20037;-88
2022/05/24 11:56:30;;;;;;;12.75;3.38;;;;;;;28.33;46.70;99514.19;5009417;28;20042;-89
2022/05/24 11:59:14;;;;;;;12.95;3.50;;;;;;;28.32;47.48;99509.03;4987348;28;20085;-88
2022/05/24 12:01:58;;;;;;;11.43;3.08;;;;;;;28.25;47.39;99506.72;4980342;28;20061;-87
2022/05/24 12:10:20;;;;;;;14.63;3.10;;;;;;;27.81;47.87;99496.34;5066718;28;20037;-89
2022/05/24 12:13:11;;;;;;;16.85;3.83;;;;;;;27.97;48.14;99492.25;5036417;28;20106;-89
2022/05/24 12:15:43;;;;;;;10.52;3.58;;;;;;;27.95;47.35;99489.00;5059172;28;20041;-89
2022/05/24 12:18:09;;;;;;;18.90;3.75;;;;;;;27.84;47.69;99492.25;5034064;28;20046;-89
2022/05/24 12:20:43;;;;;;;19.67;3.47;;;;;;;27.74;47.50;99498.69;5028082;28;20049;-90
2022/05/24 12:23:13;;;;;;;17.48;3.22;;;;;;;27.68;47.77;99495.22;5045368;28;20160;-88
2022/05/24 12:26:03;;;;;;;15.30;4.00;;;;;;;27.58;47.59;99495.41;5064254;28;20032;-87
2022/05/24 12:28:32;;;;;;;13.27;3.67;;;;;;;27.83;47.35;99499.59;5040040;28;20083;-89
2022/05/24 12:31:17;;;;;;;13.00;3.28;;;;;;;27.99;47.04;99494.66;5044397;28;20026;-87
2022/05/24 12:36:40;;;;;;;18.50;4.07;;;;;;;27.99;47.26;99495.47;5292099;23;20052;-91
2022/05/24 12:39:12;;;;;;;16.33;3.70;;;;;;;28.10;47.70;99496.94;5357126;23;20025;-90
2022/05/24 12:42:16;;;;;;;22.90;3.45;;;;;;;28.30;46.66;99494.91;5036871;28;20060;-89
2022/05/24 12:44:48;;;;;;;12.23;3.53;;;;;;;28.22;47.83;99485.53;5028384;28;20040;-92
2022/05/24 12:47:16;;;;;;;;;;;;;;;28.21;46.21;99494.81;5084910;23;20053;-92